Flight Track Log - Related Links

Times and Time Zones

All times are in EDT time to prevent confusion due to time zone crossing. See the SKW6492 flight status page for this flight to view local times or setup timezone preferences in your user account.

Time Position Orientation Groundspeed Altitude Reporting Facility
EDT Latitude Longitude Course Direction KTS MPH feet Rate Location/Type
Thu 11:36:27 AM 29.9594 -95.3414 130° Southeast 172 198 600  Level Houston Center
Thu 11:37:53 AM 29.9089 -95.2728 130° Southeast 225 259 3,200 1,882 Climbing Houston Center
Thu 11:39:00 AM 29.8606 -95.2017 128° Southeast 270 311 5,400 2,109 Climbing Houston Center
Thu 11:40:01 AM 29.8461 -95.1167 101° East 282 325 7,700 2,361 Climbing Houston Center
Thu 11:41:02 AM 29.8478 -95.0200 89° East 284 327 10,200 1,809 Climbing Houston Center
Thu 11:42:17 AM 29.8506 -94.9169 88° East 300 345 11,800 1,314 Climbing Houston Center
Thu 11:43:19 AM 29.8533 -94.8111 88° East 324 373 13,200 1,694 Climbing Houston Center
Thu 11:44:21 AM 29.8544 -94.6778 89° East 345 397 15,300 1,645 Climbing Houston Center
Thu 11:45:23 AM 29.8578 -94.5650 88° East 353 406 16,600 1,258 Climbing Houston Center
Thu 11:46:25 AM 29.8697 -94.4469 83° East 369 425 17,900 1,306 Climbing Houston Center
Thu 11:47:27 AM 29.8950 -94.3294 76° East 379 436 19,300 1,645 Climbing Houston Center
Thu 11:48:29 AM 29.9189 -94.2108 77° East 381 438 21,300 2,032 Climbing Houston Center
Thu 11:49:31 AM 29.9467 -94.0772 76° East 360 414 23,500 1,584 Climbing Houston Center
Thu 11:50:34 AM 29.9697 -93.9633 77° East 365 420 24,600 1,008 Climbing Houston Center
Thu 11:51:36 AM 29.9936 -93.8464 77° East 375 432 25,600 968 Climbing Houston Center
Thu 11:52:38 AM 30.0172 -93.7250 77° East 388 447 26,600 871 Climbing Houston Center
Thu 11:53:40 AM 30.0422 -93.6022 77° East 395 455 27,400 871 Climbing Houston Center
Thu 11:54:42 AM 30.0722 -93.4494 77° East 411 473 28,400 871 Climbing Houston Center
Thu 11:55:44 AM 30.0983 -93.3200 77° East 418 481 29,200 871 Climbing Houston Center
Thu 11:56:46 AM 30.1247 -93.1889 77° East 422 486 30,200 1,016 Climbing Houston Center
Thu 11:57:48 AM 30.1514 -93.0597 77° East 419 482 31,300 960 Climbing Houston Center
Thu 11:58:51 AM 30.1822 -92.9331 74° East 415 478 32,200 912 Climbing Houston Center
Thu 11:59:53 AM 30.2186 -92.7789 75° East 416 479 33,200 774 Climbing Houston Center
Thu 12:00:55 PM 30.2478 -92.6506 75° East 415 478 33,800 629 Climbing Houston Center
Thu 12:01:57 PM 30.2783 -92.5186 75° East 423 487 34,500 726 Climbing Houston Center
Thu 12:02:59 PM 30.3106 -92.3867 74° East 426 490 35,300 774 Climbing Houston Center
Thu 12:04:01 PM 30.3369 -92.2561 77° East 419 482 36,100 774 Climbing Houston Center
Thu 12:05:03 PM 30.3717 -92.0997 76° East 420 483 36,900 435 Climbing Houston Center
Thu 12:06:05 PM 30.4011 -91.9697 75° East 419 482 37,000 48 Climbing Houston Center
Thu 12:07:08 PM 30.4319 -91.8344 75° East 430 495 37,000  Level Houston Center
Thu 12:08:10 PM 30.4678 -91.6825 75° East 433 498 37,000  Level Houston Center
Thu 12:09:12 PM 30.4931 -91.5667 76° East 431 496 37,000  Level Houston Center
Thu 12:10:14 PM 30.5278 -91.4122 75° East 435 501 37,000  Level Houston Center
Thu 12:11:16 PM 30.5589 -91.2753 75° East 439 505 37,000  Level Houston Center
Thu 12:12:18 PM 30.5878 -91.1392 76° East 436 502 37,000  Level Houston Center
Thu 12:13:20 PM 30.6169 -91.0042 76° East 434 499 37,000  Level Houston Center
Thu 12:14:22 PM 30.6528 -90.8389 76° East 438 504 37,000  Level Houston Center
Thu 12:15:24 PM 30.6822 -90.7031 76° East 435 501 37,000  Level Houston Center
Thu 12:16:26 PM 30.7111 -90.5661 76° East 437 503 37,000  Level Houston Center
Thu 12:17:29 PM 30.7403 -90.4286 76° East 437 503 37,000  Level Houston Center
Thu 12:18:31 PM 30.7692 -90.2917 76° East 438 504 37,000  Level Houston Center
Thu 12:19:33 PM 30.7983 -90.1533 76° East 439 505 37,000  Level Houston Center
Thu 12:20:35 PM 30.8272 -90.0153 76° East 437 503 37,000  Level Houston Center
Thu 12:21:37 PM 30.8625 -89.8486 76° East 439 505 37,000  Level Houston Center
Thu 12:22:39 PM 30.8906 -89.7100 77° East 440 506 37,000  Level Houston Center
Thu 12:23:41 PM 30.9192 -89.5708 76° East 440 506 37,000  Level Houston Center
Thu 12:24:43 PM 30.9669 -89.4400 67° East 437 503 37,000  Level Houston Center
Thu 12:25:45 PM 31.0214 -89.3114 64° Northeast 440 506 37,000  Level Houston Center
Thu 12:26:47 PM 31.0744 -89.1822 64° Northeast 442 509 37,000  Level Houston Center
Thu 12:27:50 PM 31.1272 -89.0542 64° Northeast 440 506 37,000  Level Houston Center
Thu 12:28:52 PM 31.1850 -88.9186 63° Northeast 442 509 37,000  Level Houston Center
Thu 12:29:54 PM 31.2378 -88.7903 64° Northeast 439 505 37,000  Level Houston Center
Thu 12:30:56 PM 31.3019 -88.6358 64° Northeast 437 503 37,000  Level Houston Center
Thu 12:31:58 PM 31.3553 -88.5058 64° Northeast 441 507 37,000  Level Houston Center
Thu 12:33:00 PM 31.4075 -88.3781 64° Northeast 433 498 37,000  Level Houston Center
Thu 12:34:02 PM 31.4608 -88.2492 64° Northeast 435 501 37,000  Level Houston Center
Thu 12:35:04 PM 31.5128 -88.1219 64° Northeast 431 496 37,000  Level Houston Center
Thu 12:36:06 PM 31.5633 -87.9947 65° Northeast 429 494 37,000  Level Houston Center
Thu 12:37:08 PM 31.6139 -87.8689 65° Northeast 427 491 37,000  Level Houston Center
Thu 12:37:45 PM 31.6547 -87.7714 64° Northeast 431 496 37,000  Level Atlanta Center
Thu 12:38:45 PM 31.7067 -87.6442 64° Northeast 431 496 37,000  Level Atlanta Center
Thu 12:39:45 PM 31.7581 -87.5192 64° Northeast 431 496 37,000 300 Level Atlanta Center
Thu 12:40:45 PM 31.8075 -87.3917 65° Northeast 431 496 37,600 600 Climbing Atlanta Center
Thu 12:41:45 PM 31.8528 -87.2661 67° East 426 490 38,200 650 Climbing Atlanta Center
Thu 12:42:45 PM 31.9017 -87.1408 65° Northeast 421 484 38,900 400 Climbing Atlanta Center
Thu 12:43:45 PM 31.9528 -87.0178 64° Northeast 416 479 39,000 50 Climbing Atlanta Center
Thu 12:44:45 PM 31.9994 -86.8944 66° East 416 479 39,000  Level Atlanta Center
Thu 12:45:45 PM 32.0503 -86.7686 64° Northeast 416 479 39,000  Level Atlanta Center
Thu 12:46:45 PM 32.1008 -86.6597 61° Northeast 416 479 39,000  Level Atlanta Center
Thu 12:47:45 PM 32.1494 -86.5311 66° East 416 479 39,000  Level Atlanta Center
Thu 12:48:45 PM 32.1936 -86.4072 67° East 416 479 39,000  Level Atlanta Center
Thu 12:49:45 PM 32.2417 -86.2833 65° Northeast 411 473 39,000  Level Atlanta Center
Thu 12:50:45 PM 32.3208 -86.1747 49° Northeast 416 479 39,000  Level Atlanta Center
Thu 12:51:45 PM 32.3939 -86.0608 53° Northeast 416 479 39,000  Level Atlanta Center
Thu 12:52:45 PM 32.4686 -85.9542 50° Northeast 410 472 39,000  Level Atlanta Center
Thu 12:53:45 PM 32.5456 -85.8400 51° Northeast 422 486 39,000  Level Atlanta Center
Thu 12:54:45 PM 32.6181 -85.7306 52° Northeast 427 491 39,000  Level Atlanta Center
Thu 12:55:45 PM 32.6903 -85.6233 51° Northeast 416 479 39,000  Level Atlanta Center
Thu 12:56:45 PM 32.7625 -85.5161 51° Northeast 416 479 39,000  Level Atlanta Center
Thu 12:57:45 PM 32.8200 -85.4306 51° Northeast 416 479 39,000  Level Atlanta Center
Thu 12:58:45 PM 32.8922 -85.3228 51° Northeast 416 479 39,000  Level Atlanta Center
Thu 12:59:45 PM 32.9642 -85.2125 52° Northeast 421 484 39,000  Level Atlanta Center
Thu 01:00:45 PM 33.0508 -85.0872 50° Northeast 408 470 39,000  Level Atlanta Center
Thu 01:01:45 PM 33.1228 -84.9739 53° Northeast 417 480 39,000  Level Atlanta Center
Thu 01:02:45 PM 33.1944 -84.8631 52° Northeast 423 487 39,000  Level Atlanta Center
Thu 01:03:45 PM 33.2683 -84.7494 52° Northeast 423 487 39,000  Level Atlanta Center
Thu 01:04:45 PM 33.3419 -84.6356 52° Northeast 428 493 39,000  Level Atlanta Center
Thu 01:05:45 PM 33.4156 -84.5192 53° Northeast 434 499 39,000  Level Atlanta Center
Thu 01:06:45 PM 33.4911 -84.4050 52° Northeast 434 499 39,000  Level Atlanta Center
Thu 01:07:45 PM 33.5622 -84.2906 53° Northeast 434 499 39,000  Level Atlanta Center
Thu 01:08:45 PM 33.6378 -84.1736 52° Northeast 429 494 39,000  Level Atlanta Center
Thu 01:09:45 PM 33.7108 -84.0589 53° Northeast 434 499 39,000  Level Atlanta Center
Thu 01:10:45 PM 33.7858 -83.9414 52° Northeast 434 499 39,000  Level Atlanta Center
Thu 01:11:45 PM 33.8589 -83.8261 53° Northeast 434 499 39,000  Level Atlanta Center
Thu 01:12:45 PM 33.9317 -83.7108 53° Northeast 439 505 39,000  Level Atlanta Center
Thu 01:13:45 PM 34.0042 -83.5953 53° Northeast 439 505 39,000  Level Atlanta Center
Thu 01:14:45 PM 34.0747 -83.4819 53° Northeast 434 499 39,000  Level Atlanta Center
Thu 01:15:45 PM 34.1492 -83.3636 53° Northeast 434 499 39,000  Level Atlanta Center
Thu 01:16:45 PM 34.2133 -83.2625 52° Northeast 429 494 39,000  Level Atlanta Center
Thu 01:17:45 PM 34.2856 -83.1461 53° Northeast 429 494 39,000  Level Atlanta Center
Thu 01:18:45 PM 34.3600 -83.0297 52° Northeast 429 494 39,000  Level Atlanta Center
Thu 01:19:45 PM 34.4256 -82.9156 55° Northeast 429 494 39,000  Level Atlanta Center
Thu 01:20:45 PM 34.5017 -82.8011 51° Northeast 429 494 39,000  Level Atlanta Center
Thu 01:21:45 PM 34.5714 -82.6842 54° Northeast 424 488 39,000  Level Atlanta Center
Thu 01:22:45 PM 34.6453 -82.5717 51° Northeast 430 495 39,000  Level Atlanta Center
Thu 01:23:45 PM 34.7169 -82.4569 53° Northeast 425 489 39,000  Level Atlanta Center
Thu 01:24:45 PM 34.7883 -82.3367 54° Northeast 425 489 39,000  Level Atlanta Center
Thu 01:25:45 PM 34.8597 -82.2189 54° Northeast 425 489 39,000  Level Atlanta Center
Thu 01:26:45 PM 34.9311 -82.1031 53° Northeast 425 489 39,000  Level Atlanta Center
Thu 01:27:45 PM 35.0000 -81.9850 55° Northeast 430 495 39,000  Level Atlanta Center
Thu 01:28:45 PM 35.0708 -81.8614 55° Northeast 435 501 39,000  Level Atlanta Center
Thu 01:29:45 PM 35.1414 -81.7250 58° Northeast 435 501 39,000  Level Atlanta Center
Thu 01:30:45 PM 35.2100 -81.5958 57° Northeast 440 506 39,000  Level Atlanta Center
Thu 01:31:45 PM 35.2742 -81.4719 58° Northeast 440 506 39,000  Level Atlanta Center
Thu 01:32:45 PM 35.3403 -81.3425 58° Northeast 440 506 39,000 -400 Level Atlanta Center
Thu 01:33:45 PM 35.4061 -81.2131 58° Northeast 446 513 38,200 -1,150 Descending Atlanta Center
Thu 01:34:45 PM 35.4761 -81.0781 57° Northeast 453 521 36,700 -1,500 Descending Atlanta Center
Thu 01:35:45 PM 35.5497 -80.9400 57° Northeast 473 544 35,200 -1,500 Descending Atlanta Center
Thu 01:36:45 PM 35.6214 -80.8069 56° Northeast 473 544 33,700 -1,100 Descending Atlanta Center
Thu 01:37:45 PM 35.6908 -80.6714 58° Northeast 468 539 33,000 -350 Descending Atlanta Center
Thu 01:38:45 PM 35.7600 -80.5353 58° Northeast 468 539 33,000  Level Atlanta Center
Thu 01:39:45 PM 35.8331 -80.3964 57° Northeast 468 539 33,000  Level Atlanta Center
Thu 01:42:13 PM 35.9989 -80.0772 57° Northeast 465 535 33,000  Level Washington Center
Thu 01:43:14 PM 36.0708 -79.9375 57° Northeast 465 535 33,000  Level Washington Center
Thu 01:44:14 PM 36.1486 -79.8028 54° Northeast 470 541 33,000  Level Washington Center
Thu 01:45:15 PM 36.2311 -79.6528 56° Northeast 480 552 33,000  Level Washington Center
Thu 01:46:13 PM 36.3086 -79.5175 55° Northeast 480 552 33,000  Level Washington Center
Thu 01:47:15 PM 36.3794 -79.3947 54° Northeast 475 547 33,000  Level Washington Center
Thu 01:48:15 PM 36.4594 -79.2411 57° Northeast 475 547 33,000 -407 Level Washington Center
Thu 01:49:13 PM 36.5339 -79.1178 53° Northeast 480 552 32,200 -2,118 Descending Washington Center
Thu 01:50:14 PM 36.6197 -78.9614 56° Northeast 486 559 28,800 -3,174 Descending Washington Center
Thu 01:51:14 PM 36.6903 -78.8297 56° Northeast 501 577 25,800 -1,884 Descending Washington Center
Thu 01:52:15 PM 36.7736 -78.6750 56° Northeast 496 571 25,000 -403 Descending Washington Center
Thu 01:53:13 PM 36.8503 -78.5353 56° Northeast 491 565 25,000  Level Washington Center
Thu 01:54:13 PM 36.9328 -78.4008 52° Northeast 491 565 25,000  Level Washington Center
Thu 01:55:14 PM 37.0408 -78.3189 31° Northeast 483 556 25,000  Level Washington Center
Thu 01:56:15 PM 37.1619 -78.2292 31° Northeast 490 564 25,000  Level Washington Center
Thu 01:57:15 PM 37.2914 -78.1294 31° Northeast 500 575 25,000  Level Washington Center
Thu 01:58:13 PM 37.4119 -78.0392 31° Northeast 500 575 25,000 -756 Level Washington Center
Thu 01:59:14 PM 37.5328 -77.9461 31° Northeast 505 581 23,500 -2,213 Descending Washington Center
Thu 02:00:15 PM 37.6492 -77.8581 31° Northeast 498 573 20,500 -2,876 Descending Washington Center
Thu 02:01:15 PM 37.7531 -77.7769 32° Northeast 473 544 17,700 -2,695 Descending Washington Center
Thu 02:02:13 PM 37.8567 -77.6986 31° Northeast 449 517 15,200 -2,319 Descending Washington Center
Thu 02:03:14 PM 37.9558 -77.6197 32° Northeast 434 499 13,100 -1,835 Descending Washington Center
Thu 02:04:14 PM 38.0444 -77.5561 29° Northeast 420 483 11,500 -1,537 Descending Washington Center
Thu 02:05:15 PM 38.1394 -77.4847 31° Northeast 407 468 10,000 -744 Descending Washington Center
Thu 02:06:15 PM 38.2175 -77.4258 31° Northeast 366 421 10,000  Level Washington Center
Thu 02:07:13 PM 38.3081 -77.3750 24° Northeast 322 371 10,000 -712 Level Washington Center
Thu 02:08:13 PM 38.3917 -77.3611 North 302 348 8,600 -1,500 Descending Washington Center
Thu 02:09:13 PM 38.4731 -77.3631 359° North 296 341 7,000 -1,537 Descending Washington Center
Thu 02:10:14 PM 38.5500 -77.3678 357° North 283 326 5,500 -1,094 Descending Washington Center
Thu 02:11:52 PM 38.6833 -77.3667 360° North 279 321 4,100 -570 Descending Potomac TRACON
Thu 02:12:52 PM 38.7667 -77.3500 North 278 320 4,000 -50 Descending Potomac TRACON
Thu 02:13:52 PM 38.8333 -77.3500 360° North 281 323 4,000  Level Potomac TRACON
Thu 02:14:52 PM 38.9167 -77.3500 360° North 284 327 4,000  Level Potomac TRACON
Thu 02:15:52 PM 39.0000 -77.3500 360° North 283 326 4,000 -500 Level Potomac TRACON
Thu 02:16:52 PM 39.0667 -77.3500 360° North 259 298 3,000 -800 Descending Potomac TRACON
Thu 02:17:52 PM 39.1167 -77.3833 333° Northwest 248 285 2,400 -500 Descending Potomac TRACON
Thu 02:18:52 PM 39.1000 -77.4333 247° West 211 243 2,000 -198 Descending Potomac TRACON
Thu 02:19:53 PM 39.0500 -77.4333 180° South 162 186 2,000 -347 Level Potomac TRACON
Thu 02:20:53 PM 39.0000 -77.4333 180° South 125 144 1,300 -650 Descending Potomac TRACON
Thu 02:21:53 PM 38.9667 -77.4333 180° South 120 138 700 -600 Descending Potomac TRACON
Thu 02:23:00 PM 38.9474 -77.4599 191° South  Level Estimated
Thu 02:30:00 PM 38.9474 -77.4599 191° South  Level Estimated
Thu 02:31:00 PM 38.9474 -77.4599 191° South  Level Estimated
Thu 02:32:00 PM 38.9474 -77.4599 191° South  Level Estimated
Thu 02:33:00 PM 38.9474 -77.4599 191° South  Level Estimated

Login

Don't have an account? Register now (free) for customized features, flight alerts, and more!